Time;durP1;ratioP1;P1;durP2;ratioP2;P2;SDS_P1;SDS_P2;PMS_P1;PMS_P2;Temp;Humidity;BMP_temperature;BMP_pressure;BME280_temperature;BME280_humidity;BME280_pressure;Samples;Min_cycle;Max_cycle;Signal;HPM_P1;HPM_P2
2023/09/10 00:01:21;;;;;;;12.60;11.30;;;;;;;20.84;98.31;98308.16;4116317;28;20642;-85
2023/09/10 00:03:23;;;;;;;14.13;12.63;;;;;;;20.82;97.89;98306.66;4125835;28;20629;-85
2023/09/10 00:05:27;;;;;;;12.63;11.23;;;;;;;20.80;97.83;98306.00;4111056;28;21022;-85
2023/09/10 00:07:29;;;;;;;12.63;11.40;;;;;;;20.76;97.69;98311.78;4123078;28;20662;-85
2023/09/10 00:09:32;;;;;;;14.97;12.07;;;;;;;20.72;98.89;98313.94;4122366;28;20713;-85
2023/09/10 00:11:35;;;;;;;13.43;12.03;;;;;;;20.71;97.89;98320.22;4127689;28;20651;-85
2023/09/10 00:13:38;;;;;;;11.93;10.70;;;;;;;20.69;97.74;98318.72;4125646;28;20638;-85
2023/09/10 00:15:43;;;;;;;14.30;11.07;;;;;;;20.69;98.68;98314.25;4112713;28;20704;-86
2023/09/10 00:17:46;;;;;;;12.83;11.53;;;;;;;20.66;98.36;98319.00;4121454;28;20635;-86
2023/09/10 00:19:50;;;;;;;13.17;11.87;;;;;;;20.64;98.00;98321.84;4123493;28;20679;-86
2023/09/10 00:21:54;;;;;;;12.87;11.60;;;;;;;20.63;97.66;98314.06;4127763;28;20691;-85
2023/09/10 00:23:57;;;;;;;12.00;10.80;;;;;;;20.64;98.50;98315.69;4106825;28;20677;-85
2023/09/10 00:26:00;;;;;;;12.20;11.00;;;;;;;20.62;98.67;98321.16;4112719;28;21050;-84
2023/09/10 00:28:04;;;;;;;12.10;10.90;;;;;;;20.60;97.16;98319.66;4108540;28;20624;-85
2023/09/10 00:30:08;;;;;;;11.70;10.60;;;;;;;20.57;97.65;98320.81;4121303;28;21054;-85
2023/09/10 00:32:13;;;;;;;11.60;10.40;;;;;;;20.55;97.91;98320.16;4115592;28;20657;-85
2023/09/10 00:34:16;;;;;;;15.53;12.23;;;;;;;20.50;97.95;98325.09;4122794;28;20667;-84
2023/09/10 00:36:19;;;;;;;12.27;11.07;;;;;;;20.49;98.74;98327.91;4107850;28;20624;-85
2023/09/10 00:38:22;;;;;;;13.10;10.93;;;;;;;20.48;97.75;98320.97;4120201;28;20662;-85
2023/09/10 00:40:25;;;;;;;13.10;11.70;;;;;;;20.47;99.04;98319.28;4120952;28;20676;-85
2023/09/10 00:42:27;;;;;;;15.27;11.77;;;;;;;20.46;99.33;98321.13;4128884;28;20631;-85
2023/09/10 00:44:30;;;;;;;13.67;11.63;;;;;;;20.47;97.77;98321.94;4119784;28;20763;-85
2023/09/10 00:46:34;;;;;;;15.80;11.80;;;;;;;20.46;99.02;98313.16;4106014;28;20630;-84
2023/09/10 00:48:40;;;;;;;12.53;11.20;;;;;;;20.46;98.83;98317.59;4118853;28;20638;-84
2023/09/10 00:50:43;;;;;;;12.90;11.50;;;;;;;20.41;97.78;98310.13;4124956;28;20689;-86
2023/09/10 00:52:49;;;;;;;12.87;11.50;;;;;;;20.40;99.37;98319.09;4105298;28;20973;-87
2023/09/10 00:54:52;;;;;;;12.63;11.30;;;;;;;20.39;97.70;98319.25;4117875;28;20702;-87
2023/09/10 00:56:55;;;;;;;12.10;10.90;;;;;;;20.35;98.69;98305.47;4120042;28;21189;-87
2023/09/10 00:58:59;;;;;;;14.03;11.70;;;;;;;20.33;98.40;98314.59;4124624;28;20617;-87
2023/09/10 01:01:02;;;;;;;15.40;11.30;;;;;;;20.34;100.00;98314.44;4133188;28;20633;-87
2023/09/10 01:03:07;;;;;;;12.60;11.30;;;;;;;20.36;98.41;98314.28;4119702;28;20629;-87
2023/09/10 01:05:17;;;;;;;12.90;11.60;;;;;;;20.39;99.58;98316.59;4121810;28;20670;-87
2023/09/10 01:07:21;;;;;;;14.10;11.20;;;;;;;20.39;98.80;98319.25;4125088;28;20999;-87
2023/09/10 01:09:24;;;;;;;12.53;11.27;;;;;;;20.38;100.00;98320.25;4107643;28;21251;-87
2023/09/10 01:11:40;;;;;;;14.27;11.07;;;;;;;20.36;99.87;98323.03;4131196;28;20628;-86
2023/09/10 01:13:53;;;;;;;13.43;11.83;;;;;;;20.33;97.82;98327.84;4127751;28;20985;-84
2023/09/10 01:16:00;;;;;;;12.97;11.43;;;;;;;20.32;98.87;98326.16;4125544;28;20708;-85
2023/09/10 01:18:09;;;;;;;12.83;11.53;;;;;;;20.30;99.64;98320.22;4125200;28;20629;-85
2023/09/10 01:20:27;;;;;;;12.97;11.07;;;;;;;20.25;99.70;98319.88;4118943;28;20652;-85
2023/09/10 01:22:33;;;;;;;12.50;11.20;;;;;;;20.24;98.71;98327.97;4115692;28;20650;-85
2023/09/10 01:24:56;;;;;;;13.77;11.13;;;;;;;20.23;98.90;98326.31;4127635;28;21224;-85
2023/09/10 01:27:01;;;;;;;12.40;10.40;;;;;;;20.23;99.70;98328.94;4130064;28;20632;-85
2023/09/10 01:29:05;;;;;;;17.53;11.17;;;;;;;20.22;100.00;98328.13;4125194;28;20643;-85
2023/09/10 01:31:09;;;;;;;12.37;11.07;;;;;;;20.21;99.77;98330.94;4124305;28;20635;-85
2023/09/10 01:33:22;;;;;;;12.80;11.50;;;;;;;20.18;98.49;98328.59;4121957;28;20730;-84
2023/09/10 01:35:30;;;;;;;13.07;11.20;;;;;;;20.17;98.16;98326.94;4102132;28;20690;-85
2023/09/10 01:37:36;;;;;;;14.43;11.33;;;;;;;20.15;100.00;98318.31;4118823;28;20635;-85
2023/09/10 01:39:41;;;;;;;14.23;11.20;;;;;;;20.11;99.92;98330.22;4121252;28;20652;-85
2023/09/10 01:41:47;;;;;;;12.97;11.57;;;;;;;20.10;99.74;98321.44;4104956;28;21445;-85
2023/09/10 01:43:51;;;;;;;14.30;12.10;;;;;;;20.11;98.76;98322.25;4116898;28;21088;-85
2023/09/10 01:45:55;;;;;;;12.37;11.10;;;;;;;20.12;99.75;98322.09;4130392;28;20631;-85
2023/09/10 01:47:59;;;;;;;12.70;10.60;;;;;;;20.08;98.30;98322.59;4108424;28;20630;-86
2023/09/10 01:50:03;;;;;;;11.77;10.50;;;;;;;20.03;98.91;98319.59;4111054;28;21118;-86
2023/09/10 01:52:07;;;;;;;13.10;11.40;;;;;;;20.02;98.91;98317.91;4109177;28;20679;-85
2023/09/10 01:54:11;;;;;;;12.57;10.90;;;;;;;20.01;99.31;98324.19;4124827;28;20640;-85
2023/09/10 01:56:17;;;;;;;12.80;11.23;;;;;;;20.00;99.76;98325.19;4121569;28;20673;-85
2023/09/10 01:58:23;;;;;;;15.10;11.27;;;;;;;19.98;99.08;98319.19;4108161;28;21166;-86
2023/09/10 02:00:26;;;;;;;12.23;10.93;;;;;;;19.97;99.25;98320.22;4123735;28;20723;-86
2023/09/10 02:02:30;;;;;;;15.23;12.13;;;;;;;19.95;100.00;98311.56;4116458;28;20642;-85
2023/09/10 02:04:34;;;;;;;15.03;11.80;;;;;;;19.96;99.31;98315.88;4102819;28;20678;-85
2023/09/10 02:06:37;;;;;;;13.60;11.27;;;;;;;19.97;100.00;98322.84;4125219;28;20640;-85
2023/09/10 02:08:41;;;;;;;12.83;11.53;;;;;;;19.99;100.00;98320.88;4121811;28;20621;-87
2023/09/10 02:10:45;;;;;;;13.03;11.60;;;;;;;19.97;99.75;98317.56;4125617;28;21191;-87
2023/09/10 02:12:49;;;;;;;12.50;11.20;;;;;;;19.96;98.63;98316.72;4105263;28;20724;-87
2023/09/10 02:14:54;;;;;;;15.03;12.03;;;;;;;19.93;99.77;98313.56;4106879;28;20641;-88
2023/09/10 02:16:58;;;;;;;14.10;11.43;;;;;;;19.88;98.22;98316.66;4107120;28;20679;-87
2023/09/10 02:19:03;;;;;;;17.17;12.40;;;;;;;19.83;99.04;98310.16;4108379;28;20729;-88
2023/09/10 02:21:10;;;;;;;12.73;11.40;;;;;;;19.82;98.99;98312.97;4132193;28;21099;-87
2023/09/10 02:23:14;;;;;;;13.27;11.97;;;;;;;19.81;100.00;98309.47;4099822;28;20626;-88
2023/09/10 02:25:17;;;;;;;16.67;11.77;;;;;;;19.81;98.84;98306.81;4105923;28;20748;-87
2023/09/10 02:27:21;;;;;;;12.53;10.37;;;;;;;19.83;99.49;98313.63;4125363;28;20617;-87
2023/09/10 02:29:23;;;;;;;13.10;11.70;;;;;;;19.84;98.96;98319.75;4122011;28;20647;-87
2023/09/10 02:31:28;;;;;;;12.47;10.83;;;;;;;19.82;99.89;98308.50;4120427;28;20675;-87
2023/09/10 02:33:32;;;;;;;12.63;10.83;;;;;;;19.82;99.13;98302.38;4130921;28;20687;-87
2023/09/10 02:35:36;;;;;;;15.93;11.43;;;;;;;19.81;99.62;98304.19;4123745;28;21064;-87
2023/09/10 02:37:40;;;;;;;13.93;11.20;;;;;;;19.81;98.75;98309.47;4119494;28;20659;-87
2023/09/10 02:39:43;;;;;;;14.83;11.87;;;;;;;19.78;100.00;98304.50;4124225;28;20635;-87
2023/09/10 02:41:49;;;;;;;12.47;10.97;;;;;;;19.76;100.00;98305.66;4123871;28;20663;-87
2023/09/10 02:43:53;;;;;;;12.93;10.40;;;;;;;19.76;98.76;98306.47;4127065;28;20728;-87
2023/09/10 02:45:57;;;;;;;13.20;12.00;;;;;;;19.74;99.24;98305.81;4109512;28;20695;-87
2023/09/10 02:48:02;;;;;;;12.00;10.50;;;;;;;19.73;100.00;98301.50;4110951;28;20634;-87
2023/09/10 02:50:06;;;;;;;13.57;12.27;;;;;;;19.71;98.71;98300.81;4119021;28;20690;-88
2023/09/10 02:52:10;;;;;;;12.30;11.03;;;;;;;19.66;99.95;98300.44;4111551;28;20685;-87
2023/09/10 02:54:14;;;;;;;12.83;11.53;;;;;;;19.62;99.16;98296.47;4119176;28;20616;-85
2023/09/10 02:56:17;;;;;;;11.47;10.33;;;;;;;19.60;99.57;98295.75;4118864;28;21334;-85
2023/09/10 02:58:21;;;;;;;12.13;10.90;;;;;;;19.57;99.75;98296.06;4106346;28;21094;-85
2023/09/10 03:00:25;;;;;;;12.47;10.57;;;;;;;19.56;99.98;98298.88;4107811;28;20668;-85
2023/09/10 03:02:29;;;;;;;13.30;10.40;;;;;;;19.56;100.00;98294.44;4118890;28;20646;-85
2023/09/10 03:04:35;;;;;;;12.00;10.80;;;;;;;19.57;99.43;98304.00;4110840;28;20705;-85
2023/09/10 03:06:39;;;;;;;11.47;10.37;;;;;;;19.57;99.54;98296.06;4119559;28;20684;-85
2023/09/10 03:08:44;;;;;;;12.33;10.43;;;;;;;19.56;100.00;98298.88;4135394;28;21064;-85
2023/09/10 03:10:48;;;;;;;11.80;10.50;;;;;;;19.53;99.46;98300.03;4112171;28;20620;-88
2023/09/10 03:12:52;;;;;;;12.07;10.10;;;;;;;19.52;99.05;98305.47;4108585;28;21193;-87
2023/09/10 03:14:56;;;;;;;12.03;10.50;;;;;;;19.49;99.42;98298.66;4114678;28;21367;-87
2023/09/10 03:17:02;;;;;;;12.83;11.40;;;;;;;19.45;99.76;98301.78;4108199;28;20917;-87
2023/09/10 03:19:06;;;;;;;14.90;11.37;;;;;;;19.44;100.00;98300.13;4110321;28;21679;-87
2023/09/10 03:21:11;;;;;;;17.27;11.37;;;;;;;19.44;99.67;98302.78;4136220;28;20670;-87
2023/09/10 03:23:15;;;;;;;15.03;11.50;;;;;;;19.44;100.00;98300.13;4125492;28;20731;-87
2023/09/10 03:25:19;;;;;;;12.40;11.13;;;;;;;19.44;100.00;98300.97;4115040;28;21263;-85
2023/09/10 03:27:23;;;;;;;18.60;11.60;;;;;;;19.46;100.00;98306.91;4127714;28;21196;-85
2023/09/10 03:29:26;;;;;;;15.03;11.60;;;;;;;19.46;100.00;98306.91;4111690;28;20682;-85
2023/09/10 03:31:30;;;;;;;13.47;11.03;;;;;;;19.46;100.00;98306.91;4129017;28;20686;-85
2023/09/10 03:33:34;;;;;;;11.57;10.30;;;;;;;19.44;99.43;98302.78;4125754;28;20623;-85
2023/09/10 03:35:37;;;;;;;12.23;11.00;;;;;;;19.40;100.00;98304.88;4127035;28;20719;-85
2023/09/10 03:37:42;;;;;;;12.93;11.60;;;;;;;19.38;99.27;98308.69;4122231;28;20652;-85
2023/09/10 03:39:45;;;;;;;15.17;11.87;;;;;;;19.32;99.61;98305.81;4117667;28;20608;-85
2023/09/10 03:41:48;;;;;;;18.27;11.50;;;;;;;19.30;100.00;98305.13;4122842;28;21223;-85
2023/09/10 03:43:53;;;;;;;12.37;10.33;;;;;;;19.30;100.00;98308.59;4113158;28;21223;-87
2023/09/10 03:45:57;;;;;;;12.33;10.60;;;;;;;19.28;98.83;98300.00;4129126;28;20631;-85
2023/09/10 03:48:00;;;;;;;11.23;10.13;;;;;;;19.26;98.99;98306.41;4129409;28;21045;-85
2023/09/10 03:50:04;;;;;;;11.90;10.60;;;;;;;19.21;98.58;98303.41;4113864;28;20680;-85
2023/09/10 03:52:18;;;;;;;11.27;10.00;;;;;;;19.14;97.61;98307.63;4107713;28;20617;-86
2023/09/10 03:54:22;;;;;;;13.13;11.60;;;;;;;19.08;98.72;98295.88;4128870;28;20670;-85
2023/09/10 03:56:26;;;;;;;11.60;10.43;;;;;;;19.06;98.45;98302.28;4101994;28;20709;-85
2023/09/10 03:58:29;;;;;;;11.73;10.40;;;;;;;19.05;98.73;98303.28;4133810;28;20642;-84
2023/09/10 04:00:33;;;;;;;16.33;11.23;;;;;;;19.04;99.02;98302.44;4112452;28;20724;-84
2023/09/10 04:02:37;;;;;;;11.90;10.60;;;;;;;19.05;98.63;98303.28;4111700;28;20655;-84
2023/09/10 04:04:42;;;;;;;13.13;10.87;;;;;;;19.08;99.27;98302.97;4109360;28;20669;-84
2023/09/10 04:06:45;;;;;;;12.80;11.50;;;;;;;19.09;99.38;98304.63;4110673;28;20621;-84
2023/09/10 04:08:48;;;;;;;12.00;10.80;;;;;;;19.10;99.53;98316.88;4116862;28;20680;-84
2023/09/10 04:10:53;;;;;;;12.63;11.40;;;;;;;19.11;100.00;98315.88;4121800;28;20649;-84
2023/09/10 04:12:56;;;;;;;15.30;11.60;;;;;;;19.11;100.00;98307.94;4115459;28;20694;-84
2023/09/10 04:14:58;;;;;;;11.90;10.67;;;;;;;19.14;100.00;98321.72;4117995;28;20643;-84
2023/09/10 04:17:01;;;;;;;11.50;10.30;;;;;;;19.16;100.00;98324.19;4125717;28;20702;-84
2023/09/10 04:19:05;;;;;;;13.17;11.80;;;;;;;19.15;100.00;98326.00;4125064;28;21249;-84
2023/09/10 04:21:08;;;;;;;11.87;10.50;;;;;;;19.14;100.00;98328.78;4107485;28;20625;-84
2023/09/10 04:23:12;;;;;;;12.93;11.47;;;;;;;19.11;99.51;98323.78;4123795;28;21069;-85
2023/09/10 04:25:19;;;;;;;12.20;10.33;;;;;;;19.10;99.55;98327.44;4116963;28;20672;-84
2023/09/10 04:27:24;;;;;;;13.30;10.70;;;;;;;19.05;99.15;98330.53;4122279;28;20632;-85
2023/09/10 04:29:26;;;;;;;12.80;10.83;;;;;;;19.02;100.00;98325.56;4109037;28;21092;-84
2023/09/10 04:31:30;;;;;;;12.23;10.33;;;;;;;18.98;99.22;98329.44;4106661;28;20634;-84
2023/09/10 04:33:33;;;;;;;14.47;11.00;;;;;;;18.96;99.15;98328.78;4121963;28;20652;-84
2023/09/10 04:35:36;;;;;;;12.27;10.80;;;;;;;18.94;99.87;98330.75;4126325;28;20711;-84
2023/09/10 04:37:40;;;;;;;12.60;11.30;;;;;;;18.92;100.00;98334.50;4123039;28;20690;-84
2023/09/10 04:39:43;;;;;;;11.63;10.43;;;;;;;18.89;99.19;98340.09;4125883;28;20651;-84
2023/09/10 04:41:46;;;;;;;13.60;10.63;;;;;;;18.88;100.00;98329.66;4120558;28;20646;-84
2023/09/10 04:43:53;;;;;;;12.23;11.03;;;;;;;18.87;100.00;98328.84;4126987;28;20726;-84
2023/09/10 04:45:56;;;;;;;13.80;10.90;;;;;;;18.88;100.00;98333.97;4124501;28;20640;-84
2023/09/10 04:48:02;;;;;;;11.63;10.43;;;;;;;18.87;99.76;98328.00;4120045;28;20632;-84
2023/09/10 04:50:07;;;;;;;12.23;10.23;;;;;;;18.86;100.00;98331.63;4119253;28;21205;-85
2023/09/10 04:52:15;;;;;;;14.50;11.17;;;;;;;18.88;100.00;98332.31;4136793;28;20676;-84
2023/09/10 04:54:18;;;;;;;12.43;11.10;;;;;;;18.89;99.60;98334.81;4123833;28;20678;-84
2023/09/10 04:56:21;;;;;;;12.80;10.07;;;;;;;18.89;99.99;98338.28;4111789;28;21184;-84
2023/09/10 04:58:25;;;;;;;11.60;10.33;;;;;;;18.90;100.00;98341.75;4125281;28;20657;-84
2023/09/10 05:00:31;;;;;;;12.97;11.13;;;;;;;18.89;100.00;98337.44;4109620;28;20637;-84
2023/09/10 05:02:34;;;;;;;13.33;11.20;;;;;;;18.88;100.00;98341.91;4110779;28;20624;-84
2023/09/10 05:04:38;;;;;;;12.27;10.50;;;;;;;18.88;100.00;98338.41;4120660;28;20659;-85
2023/09/10 05:06:41;;;;;;;12.90;11.40;;;;;;;18.88;100.00;98333.97;4107479;28;20668;-85
2023/09/10 05:08:46;;;;;;;16.00;10.43;;;;;;;18.89;100.00;98340.91;4118955;28;20643;-86
2023/09/10 05:10:49;;;;;;;12.93;10.93;;;;;;;18.92;100.00;98340.63;4101168;28;20644;-85
2023/09/10 05:12:53;;;;;;;11.27;10.13;;;;;;;18.93;100.00;98339.66;4117352;28;20635;-85
2023/09/10 05:14:56;;;;;;;11.70;10.60;;;;;;;18.96;100.00;98343.81;4112494;28;20703;-85
2023/09/10 05:17:02;;;;;;;14.93;10.73;;;;;;;18.97;100.00;98348.09;4126687;28;20636;-85
2023/09/10 05:19:05;;;;;;;14.30;11.23;;;;;;;19.01;99.60;98352.13;4122653;28;20656;-85
2023/09/10 05:21:09;;;;;;;12.80;10.53;;;;;;;19.06;99.76;98347.22;4117551;28;21094;-86
2023/09/10 05:23:12;;;;;;;12.43;11.07;;;;;;;19.09;99.17;98354.88;4109945;28;20655;-85
2023/09/10 05:25:16;;;;;;;15.00;11.20;;;;;;;19.16;99.02;98358.59;4126931;28;20643;-85
2023/09/10 05:27:19;;;;;;;11.07;10.00;;;;;;;19.24;99.75;98359.47;4132908;28;20645;-85
2023/09/10 05:29:23;;;;;;;15.47;10.70;;;;;;;19.35;99.26;98359.25;4121583;28;20630;-85
2023/09/10 05:31:26;;;;;;;12.43;11.13;;;;;;;19.46;98.99;98365.13;4100622;28;20639;-85
2023/09/10 05:33:31;;;;;;;12.43;11.13;;;;;;;19.56;99.90;98365.03;4112265;28;20639;-85
2023/09/10 05:35:34;;;;;;;13.80;11.57;;;;;;;19.67;99.84;98367.47;4120856;28;20716;-85
2023/09/10 05:37:38;;;;;;;11.60;10.23;;;;;;;19.78;99.68;98372.50;4104847;28;20618;-87
2023/09/10 05:39:40;;;;;;;13.30;11.40;;;;;;;19.88;98.07;98374.94;4106648;28;21219;-87
2023/09/10 05:41:44;;;;;;;12.00;10.80;;;;;;;19.97;98.13;98376.66;4125169;28;20692;-87
2023/09/10 05:43:47;;;;;;;12.23;11.03;;;;;;;20.10;98.63;98378.88;4112910;28;20690;-87
2023/09/10 05:45:51;;;;;;;12.70;9.97;;;;;;;20.21;98.49;98381.28;4106362;28;21191;-87
2023/09/10 05:47:54;;;;;;;12.60;10.03;;;;;;;20.29;96.00;98376.84;4131951;28;20666;-88
2023/09/10 05:50:01;;;;;;;10.83;9.73;;;;;;;20.38;94.90;98374.06;4105610;28;21223;-87
2023/09/10 05:52:05;;;;;;;11.93;10.43;;;;;;;20.46;94.96;98371.47;4117632;28;20632;-87
2023/09/10 05:54:08;;;;;;;10.97;9.60;;;;;;;20.56;94.02;98377.47;4123975;28;20642;-87
2023/09/10 05:56:11;;;;;;;11.53;10.33;;;;;;;20.70;95.19;98384.03;4111250;28;21195;-87
2023/09/10 05:58:15;;;;;;;10.77;9.40;;;;;;;20.83;96.24;98382.56;4104219;28;21090;-87
2023/09/10 06:00:19;;;;;;;11.70;10.47;;;;;;;20.95;95.07;98378.63;4110561;28;20634;-87
2023/09/10 06:02:23;;;;;;;11.90;10.70;;;;;;;21.07;94.20;98382.66;4113553;28;20629;-88
2023/09/10 06:04:27;;;;;;;12.10;10.90;;;;;;;21.14;92.66;98388.94;4109282;28;20711;-87
2023/09/10 06:06:32;;;;;;;12.40;10.30;;;;;;;21.21;92.61;98384.66;4110639;28;21037;-88
2023/09/10 06:08:35;;;;;;;13.80;10.13;;;;;;;21.31;93.23;98384.34;4121542;28;20684;-87
2023/09/10 06:10:38;;;;;;;11.43;10.30;;;;;;;21.43;93.76;98391.00;4109665;28;20714;-87
2023/09/10 06:12:43;;;;;;;12.70;10.27;;;;;;;21.50;92.29;98389.38;4121740;28;20629;-87
2023/09/10 06:14:46;;;;;;;11.37;10.23;;;;;;;21.61;92.09;98393.56;4125713;28;20632;-87
2023/09/10 06:16:49;;;;;;;10.80;9.73;;;;;;;21.72;91.76;98402.00;4112089;28;20622;-85
2023/09/10 06:18:53;;;;;;;11.40;9.97;;;;;;;21.82;90.12;98405.34;4124312;28;20653;-85
2023/09/10 06:20:56;;;;;;;11.97;10.63;;;;;;;21.93;90.55;98403.16;4111803;28;20671;-85
2023/09/10 06:23:01;;;;;;;16.00;9.80;;;;;;;22.00;89.53;98398.03;4107774;28;20658;-86
2023/09/10 06:25:06;;;;;;;14.47;10.10;;;;;;;22.07;88.73;98406.97;4121207;28;20640;-85
2023/09/10 06:27:11;;;;;;;11.57;10.37;;;;;;;22.16;88.99;98396.19;4123045;28;20621;-85
2023/09/10 06:29:15;;;;;;;11.73;10.47;;;;;;;22.33;89.55;98396.00;4108655;28;21071;-85
2023/09/10 06:31:18;;;;;;;11.87;10.67;;;;;;;22.48;89.06;98394.28;4105202;28;20646;-85
2023/09/10 06:33:21;;;;;;;11.57;10.30;;;;;;;22.63;89.79;98395.25;4122667;28;20737;-85
2023/09/10 06:35:25;;;;;;;11.87;10.10;;;;;;;22.76;89.89;98401.69;4121183;28;20656;-85
2023/09/10 06:37:28;;;;;;;11.57;10.57;;;;;;;22.90;88.33;98394.81;4113837;28;20697;-85
2023/09/10 06:39:38;;;;;;;11.37;10.27;;;;;;;23.01;88.11;98397.91;4128909;28;20662;-86
2023/09/10 06:41:41;;;;;;;13.87;10.77;;;;;;;23.15;88.67;98397.16;4104676;28;20629;-85
2023/09/10 06:43:45;;;;;;;14.37;11.10;;;;;;;23.23;87.92;98399.81;4125966;28;20740;-85
2023/09/10 06:45:52;;;;;;;12.07;10.77;;;;;;;23.34;88.66;98399.41;4126124;28;20629;-85
2023/09/10 06:47:54;;;;;;;13.13;10.40;;;;;;;23.39;87.03;98397.03;4112962;28;20649;-86
2023/09/10 06:49:57;;;;;;;11.77;10.67;;;;;;;23.45;88.22;98399.81;4120215;28;20697;-85
2023/09/10 06:52:01;;;;;;;13.50;12.10;;;;;;;23.59;88.65;98404.38;4125706;28;21255;-85
2023/09/10 06:54:04;;;;;;;15.17;10.90;;;;;;;23.71;88.21;98406.47;4111530;28;20703;-86
2023/09/10 06:56:09;;;;;;;11.20;10.10;;;;;;;23.88;87.76;98404.53;4112919;28;20739;-85
2023/09/10 06:58:14;;;;;;;12.83;11.63;;;;;;;24.08;88.15;98411.00;4136741;28;20630;-85
2023/09/10 07:00:18;;;;;;;13.70;11.17;;;;;;;24.22;87.43;98406.53;4125678;28;20883;-86
2023/09/10 07:02:21;;;;;;;14.60;10.50;;;;;;;24.41;88.04;98413.19;4119092;28;20650;-85
2023/09/10 07:04:26;;;;;;;12.37;10.30;;;;;;;24.53;86.10;98409.91;4120403;28;20675;-86
2023/09/10 07:06:29;;;;;;;12.00;10.80;;;;;;;24.58;86.13;98418.16;4122119;28;20661;-85
2023/09/10 07:08:35;;;;;;;13.23;10.70;;;;;;;24.58;87.27;98406.69;4124600;28;21012;-85
2023/09/10 07:10:39;;;;;;;11.40;10.30;;;;;;;24.69;85.83;98415.06;4109763;28;20636;-86
2023/09/10 07:12:43;;;;;;;11.37;10.13;;;;;;;24.73;85.48;98414.50;4124283;28;20641;-86
2023/09/10 07:14:49;;;;;;;12.10;10.17;;;;;;;24.74;85.39;98415.31;4111492;28;20624;-86
2023/09/10 07:16:52;;;;;;;11.50;10.30;;;;;;;24.88;85.59;98414.47;4125632;28;20650;-86
2023/09/10 07:18:55;;;;;;;13.17;10.70;;;;;;;25.12;86.65;98416.88;4112194;28;20711;-86
2023/09/10 07:20:58;;;;;;;13.93;11.00;;;;;;;25.34;84.97;98417.56;4121014;28;20630;-85
2023/09/10 07:23:02;;;;;;;11.67;10.20;;;;;;;25.55;84.07;98416.78;4127348;28;20620;-85
2023/09/10 07:25:07;;;;;;;11.30;10.20;;;;;;;25.69;84.86;98419.41;4125058;28;21323;-86
2023/09/10 07:27:10;;;;;;;11.40;10.30;;;;;;;25.86;85.05;98426.16;4124405;28;21181;-86
2023/09/10 07:29:16;;;;;;;12.00;9.97;;;;;;;26.01;84.23;98424.25;4122378;28;20646;-86
2023/09/10 07:31:22;;;;;;;13.90;10.20;;;;;;;26.03;81.25;98419.53;4122834;28;21082;-85
2023/09/10 07:33:25;;;;;;;14.67;10.30;;;;;;;26.06;80.35;98419.16;4121784;28;20639;-86
2023/09/10 07:35:27;;;;;;;11.00;9.90;;;;;;;26.06;80.16;98417.31;4120930;28;20663;-86
2023/09/10 07:37:31;;;;;;;12.30;9.83;;;;;;;26.03;80.24;98415.00;4121887;28;20878;-86
2023/09/10 07:39:34;;;;;;;10.10;9.10;;;;;;;26.10;80.40;98410.56;4115532;28;20659;-86
2023/09/10 07:41:37;;;;;;;10.23;9.03;;;;;;;26.28;81.63;98424.28;4117933;28;20656;-85
2023/09/10 07:43:40;;;;;;;10.93;9.83;;;;;;;26.48;81.51;98420.75;4122355;28;20644;-85
2023/09/10 07:45:46;;;;;;;10.80;9.70;;;;;;;26.66;83.05;98424.56;4125864;28;20626;-86
2023/09/10 07:47:49;;;;;;;11.30;10.10;;;;;;;26.85;82.98;98415.00;4122035;28;20634;-86
2023/09/10 07:49:53;;;;;;;10.90;9.77;;;;;;;26.99;81.91;98420.25;4134167;28;20637;-86
2023/09/10 07:51:56;;;;;;;11.30;9.80;;;;;;;27.14;79.52;98421.78;4123764;28;20730;-86
2023/09/10 07:53:59;;;;;;;10.70;9.57;;;;;;;27.31;80.28;98424.94;4121222;28;20679;-86
2023/09/10 07:56:03;;;;;;;11.23;9.47;;;;;;;27.46;80.30;98423.75;4132779;28;20647;-86
2023/09/10 07:58:06;;;;;;;15.60;10.10;;;;;;;27.58;78.14;98422.97;4125407;28;20634;-86
2023/09/10 08:00:11;;;;;;;11.20;10.10;;;;;;;27.66;80.34;98419.28;4124539;28;20728;-86
2023/09/10 08:02:16;;;;;;;11.60;10.50;;;;;;;27.73;79.70;98431.69;4128235;28;20635;-86
2023/09/10 08:04:19;;;;;;;10.80;9.70;;;;;;;27.70;79.49;98426.72;4120243;28;20683;-86
2023/09/10 08:06:22;;;;;;;10.60;9.60;;;;;;;27.63;78.24;98419.69;4133177;28;20619;-86
2023/09/10 08:08:25;;;;;;;10.33;9.37;;;;;;;27.66;77.68;98425.50;4120565;28;20632;-86
2023/09/10 08:10:27;;;;;;;12.07;9.37;;;;;;;27.77;79.27;98432.94;4112853;28;21133;-86
2023/09/10 08:12:31;;;;;;;10.60;9.60;;;;;;;27.79;77.91;98424.69;4122394;28;20657;-86
2023/09/10 08:14:35;;;;;;;11.70;10.57;;;;;;;27.76;77.07;98423.22;4125467;28;20706;-86
2023/09/10 08:16:38;;;;;;;13.77;11.10;;;;;;;27.81;76.84;98425.31;4124291;28;21216;-86
2023/09/10 08:18:45;;;;;;;10.57;9.40;;;;;;;27.90;76.47;98424.06;4127929;28;20636;-86
2023/09/10 08:20:48;;;;;;;11.40;9.27;;;;;;;28.04;77.97;98421.22;4126107;28;20704;-86
2023/09/10 08:22:51;;;;;;;10.77;9.10;;;;;;;28.15;77.48;98421.44;4120218;28;20642;-86
2023/09/10 08:24:55;;;;;;;11.17;10.07;;;;;;;28.23;77.01;98426.59;4122662;28;20630;-85
2023/09/10 08:27:01;;;;;;;12.73;10.20;;;;;;;28.38;79.11;98421.03;4117126;28;20724;-85
2023/09/10 08:29:04;;;;;;;11.70;9.90;;;;;;;28.51;75.84;98424.53;4108254;28;20638;-85
2023/09/10 08:31:07;;;;;;;15.33;10.87;;;;;;;28.61;75.12;98424.91;4123545;28;20655;-85
2023/09/10 08:33:10;;;;;;;11.77;10.57;;;;;;;28.65;75.08;98426.16;4122982;28;20708;-86
2023/09/10 08:35:14;;;;;;;10.87;9.90;;;;;;;28.76;73.74;98422.84;4132687;28;21201;-85
2023/09/10 08:37:18;;;;;;;10.90;9.90;;;;;;;28.84;74.14;98422.66;4121281;28;20661;-85
2023/09/10 08:39:21;;;;;;;13.00;10.30;;;;;;;28.94;74.24;98412.25;4136001;28;20643;-86
2023/09/10 08:41:30;;;;;;;11.47;10.37;;;;;;;29.00;74.42;98420.28;4115509;28;21053;-85
2023/09/10 08:43:40;;;;;;;9.80;8.90;;;;;;;29.10;77.88;98410.75;4118044;28;20647;-85
2023/09/10 08:45:44;;;;;;;11.53;10.43;;;;;;;29.15;74.75;98419.03;4122086;28;21003;-86
2023/09/10 08:47:49;;;;;;;11.50;10.40;;;;;;;29.27;77.32;98411.13;4125896;28;20635;-86
2023/09/10 08:49:57;;;;;;;10.70;9.60;;;;;;;29.34;76.29;98414.63;4106876;28;20676;-85
2023/09/10 08:52:02;;;;;;;14.33;10.50;;;;;;;29.32;75.79;98420.22;4118177;28;20638;-85
2023/09/10 08:54:06;;;;;;;11.30;10.20;;;;;;;29.26;73.39;98418.38;4117514;28;20650;-85
2023/09/10 08:56:10;;;;;;;10.70;9.70;;;;;;;29.29;75.09;98412.59;4122413;28;20678;-86
2023/09/10 08:58:14;;;;;;;17.10;10.77;;;;;;;29.35;75.17;98417.09;4109574;28;20642;-85
2023/09/10 09:00:17;;;;;;;12.47;10.30;;;;;;;29.40;74.02;98414.59;4123599;28;21230;-86
2023/09/10 09:02:21;;;;;;;10.70;9.67;;;;;;;29.42;74.20;98407.13;4118291;28;20643;-85
2023/09/10 09:04:25;;;;;;;11.90;10.70;;;;;;;29.50;73.31;98406.91;4124997;28;20683;-85
2023/09/10 09:06:30;;;;;;;11.60;10.40;;;;;;;29.57;73.93;98404.97;4125177;28;20619;-85
2023/09/10 09:08:36;;;;;;;12.30;11.00;;;;;;;29.65;72.61;98407.41;4119230;28;20628;-85
2023/09/10 09:10:40;;;;;;;11.87;10.60;;;;;;;29.73;73.10;98409.84;4106130;28;20622;-86
2023/09/10 09:12:43;;;;;;;12.00;10.03;;;;;;;29.67;73.44;98408.03;4107132;28;20641;-85
2023/09/10 09:14:47;;;;;;;13.43;10.63;;;;;;;29.68;71.59;98412.34;4110477;28;20639;-85
2023/09/10 09:16:53;;;;;;;11.80;10.60;;;;;;;29.69;73.11;98408.63;4118793;28;20627;-86
2023/09/10 09:18:56;;;;;;;11.90;10.67;;;;;;;29.75;71.98;98407.78;4131374;28;20641;-86
2023/09/10 09:21:02;;;;;;;13.03;9.80;;;;;;;29.76;71.09;98409.44;4107643;28;21317;-86
2023/09/10 09:23:14;;;;;;;10.90;9.80;;;;;;;29.80;70.75;98406.13;4111147;28;21267;-86
2023/09/10 09:25:19;;;;;;;12.10;10.27;;;;;;;29.74;71.47;98412.34;4125376;28;21107;-85
2023/09/10 09:27:23;;;;;;;10.97;9.90;;;;;;;29.77;70.64;98405.66;4112171;28;20733;-86
2023/09/10 09:29:26;;;;;;;11.20;10.07;;;;;;;29.83;72.27;98410.22;4109869;28;20631;-86
2023/09/10 09:31:29;;;;;;;10.43;9.43;;;;;;;29.90;70.94;98408.31;4123579;28;20643;-86